sensor_id;sensor_type;location;lat;lon;timestamp;P1;durP1;ratioP1;P2;durP2;ratioP2
23258;SDS011;11798;51.528;7.240;2023-04-25T00:01:36;23.60;;;8.47;;
23258;SDS011;11798;51.528;7.240;2023-04-25T00:04:02;21.10;;;8.83;;
23258;SDS011;11798;51.528;7.240;2023-04-25T00:06:30;22.90;;;8.23;;
23258;SDS011;11798;51.528;7.240;2023-04-25T00:08:57;22.53;;;8.00;;
23258;SDS011;11798;51.528;7.240;2023-04-25T00:11:23;17.10;;;7.00;;
23258;SDS011;11798;51.528;7.240;2023-04-25T00:13:48;16.60;;;8.30;;
23258;SDS011;11798;51.528;7.240;2023-04-25T00:16:15;20.23;;;8.40;;
23258;SDS011;11798;51.528;7.240;2023-04-25T00:18:42;19.77;;;8.17;;
23258;SDS011;11798;51.528;7.240;2023-04-25T00:21:08;21.90;;;8.40;;
23258;SDS011;11798;51.528;7.240;2023-04-25T00:23:34;16.10;;;7.70;;
23258;SDS011;11798;51.528;7.240;2023-04-25T00:26:01;16.70;;;7.97;;
23258;SDS011;11798;51.528;7.240;2023-04-25T00:28:27;20.30;;;7.93;;
23258;SDS011;11798;51.528;7.240;2023-04-25T00:30:53;14.67;;;7.80;;
23258;SDS011;11798;51.528;7.240;2023-04-25T00:33:18;13.57;;;6.93;;
23258;SDS011;11798;51.528;7.240;2023-04-25T00:35:44;11.97;;;6.90;;
23258;SDS011;11798;51.528;7.240;2023-04-25T00:38:10;15.00;;;7.40;;
23258;SDS011;11798;51.528;7.240;2023-04-25T00:40:35;15.17;;;6.57;;
23258;SDS011;11798;51.528;7.240;2023-04-25T00:43:01;15.97;;;6.97;;
23258;SDS011;11798;51.528;7.240;2023-04-25T00:45:27;14.83;;;7.13;;
23258;SDS011;11798;51.528;7.240;2023-04-25T00:47:57;13.37;;;6.60;;
23258;SDS011;11798;51.528;7.240;2023-04-25T00:50:23;16.73;;;6.63;;
23258;SDS011;11798;51.528;7.240;2023-04-25T00:52:49;15.47;;;6.90;;
23258;SDS011;11798;51.528;7.240;2023-04-25T00:55:15;14.47;;;6.77;;
23258;SDS011;11798;51.528;7.240;2023-04-25T00:57:42;13.47;;;6.83;;
23258;SDS011;11798;51.528;7.240;2023-04-25T01:00:08;15.30;;;6.70;;
23258;SDS011;11798;51.528;7.240;2023-04-25T01:02:35;20.40;;;7.00;;
23258;SDS011;11798;51.528;7.240;2023-04-25T01:05:02;11.47;;;5.83;;
23258;SDS011;11798;51.528;7.240;2023-04-25T01:07:29;13.83;;;7.20;;
23258;SDS011;11798;51.528;7.240;2023-04-25T01:09:55;15.20;;;6.93;;
23258;SDS011;11798;51.528;7.240;2023-04-25T01:12:21;11.97;;;6.13;;
23258;SDS011;11798;51.528;7.240;2023-04-25T01:14:46;13.47;;;7.07;;
23258;SDS011;11798;51.528;7.240;2023-04-25T01:17:12;14.97;;;6.80;;
23258;SDS011;11798;51.528;7.240;2023-04-25T01:19:38;12.30;;;7.03;;
23258;SDS011;11798;51.528;7.240;2023-04-25T01:22:03;15.87;;;7.70;;
23258;SDS011;11798;51.528;7.240;2023-04-25T01:24:32;12.07;;;6.43;;
23258;SDS011;11798;51.528;7.240;2023-04-25T01:26:59;15.83;;;7.03;;
23258;SDS011;11798;51.528;7.240;2023-04-25T01:29:26;17.77;;;6.50;;
23258;SDS011;11798;51.528;7.240;2023-04-25T01:31:52;12.50;;;6.40;;
23258;SDS011;11798;51.528;7.240;2023-04-25T01:34:18;16.87;;;6.20;;
23258;SDS011;11798;51.528;7.240;2023-04-25T01:36:44;14.43;;;7.23;;
23258;SDS011;11798;51.528;7.240;2023-04-25T01:39:11;15.63;;;7.70;;
23258;SDS011;11798;51.528;7.240;2023-04-25T01:41:36;18.07;;;6.77;;
23258;SDS011;11798;51.528;7.240;2023-04-25T01:44:02;17.53;;;7.13;;
23258;SDS011;11798;51.528;7.240;2023-04-25T01:46:28;13.73;;;6.70;;
23258;SDS011;11798;51.528;7.240;2023-04-25T01:48:54;16.73;;;7.37;;
23258;SDS011;11798;51.528;7.240;2023-04-25T01:51:19;17.80;;;7.50;;
23258;SDS011;11798;51.528;7.240;2023-04-25T01:53:45;15.00;;;6.87;;
23258;SDS011;11798;51.528;7.240;2023-04-25T01:56:11;16.37;;;7.23;;
23258;SDS011;11798;51.528;7.240;2023-04-25T01:58:36;15.57;;;7.77;;
23258;SDS011;11798;51.528;7.240;2023-04-25T02:01:02;18.50;;;8.47;;
23258;SDS011;11798;51.528;7.240;2023-04-25T02:03:28;16.27;;;8.60;;
23258;SDS011;11798;51.528;7.240;2023-04-25T02:05:55;16.13;;;9.40;;
23258;SDS011;11798;51.528;7.240;2023-04-25T02:08:20;15.43;;;9.07;;
23258;SDS011;11798;51.528;7.240;2023-04-25T02:10:46;18.80;;;8.73;;
23258;SDS011;11798;51.528;7.240;2023-04-25T02:13:11;24.33;;;9.63;;
23258;SDS011;11798;51.528;7.240;2023-04-25T02:15:37;22.30;;;9.97;;
23258;SDS011;11798;51.528;7.240;2023-04-25T02:18:03;17.93;;;10.13;;
23258;SDS011;11798;51.528;7.240;2023-04-25T02:20:29;22.47;;;10.73;;
23258;SDS011;11798;51.528;7.240;2023-04-25T02:22:55;23.93;;;10.03;;
23258;SDS011;11798;51.528;7.240;2023-04-25T02:25:21;18.57;;;9.27;;
23258;SDS011;11798;51.528;7.240;2023-04-25T02:27:47;21.13;;;9.60;;
23258;SDS011;11798;51.528;7.240;2023-04-25T02:30:13;23.93;;;10.40;;
23258;SDS011;11798;51.528;7.240;2023-04-25T02:32:39;20.93;;;9.67;;
23258;SDS011;11798;51.528;7.240;2023-04-25T02:35:06;18.73;;;9.80;;
23258;SDS011;11798;51.528;7.240;2023-04-25T02:37:32;17.13;;;9.10;;
23258;SDS011;11798;51.528;7.240;2023-04-25T02:39:59;14.93;;;8.03;;
23258;SDS011;11798;51.528;7.240;2023-04-25T02:42:25;18.30;;;8.97;;
23258;SDS011;11798;51.528;7.240;2023-04-25T02:44:51;17.87;;;8.53;;
23258;SDS011;11798;51.528;7.240;2023-04-25T02:47:17;17.13;;;9.23;;
23258;SDS011;11798;51.528;7.240;2023-04-25T02:49:42;16.90;;;9.70;;
23258;SDS011;11798;51.528;7.240;2023-04-25T02:52:08;22.43;;;9.23;;
23258;SDS011;11798;51.528;7.240;2023-04-25T02:54:34;16.50;;;8.50;;
23258;SDS011;11798;51.528;7.240;2023-04-25T02:56:59;17.13;;;8.83;;
23258;SDS011;11798;51.528;7.240;2023-04-25T02:59:26;20.40;;;8.53;;
23258;SDS011;11798;51.528;7.240;2023-04-25T03:01:51;18.70;;;9.47;;
23258;SDS011;11798;51.528;7.240;2023-04-25T03:04:17;18.03;;;9.07;;
23258;SDS011;11798;51.528;7.240;2023-04-25T03:06:44;19.17;;;9.27;;
23258;SDS011;11798;51.528;7.240;2023-04-25T03:09:09;25.07;;;8.90;;
23258;SDS011;11798;51.528;7.240;2023-04-25T03:11:36;19.77;;;9.40;;
23258;SDS011;11798;51.528;7.240;2023-04-25T03:14:03;24.37;;;9.33;;
23258;SDS011;11798;51.528;7.240;2023-04-25T03:16:29;22.50;;;9.27;;
23258;SDS011;11798;51.528;7.240;2023-04-25T03:18:55;17.67;;;8.93;;
23258;SDS011;11798;51.528;7.240;2023-04-25T03:21:21;16.30;;;8.80;;
23258;SDS011;11798;51.528;7.240;2023-04-25T03:23:47;16.97;;;9.70;;
23258;SDS011;11798;51.528;7.240;2023-04-25T03:26:12;18.90;;;10.50;;
23258;SDS011;11798;51.528;7.240;2023-04-25T03:28:38;21.23;;;10.30;;
23258;SDS011;11798;51.528;7.240;2023-04-25T03:31:05;21.30;;;9.83;;
23258;SDS011;11798;51.528;7.240;2023-04-25T03:33:30;16.50;;;10.13;;
23258;SDS011;11798;51.528;7.240;2023-04-25T03:35:56;17.80;;;9.57;;
23258;SDS011;11798;51.528;7.240;2023-04-25T03:38:22;17.33;;;9.40;;
23258;SDS011;11798;51.528;7.240;2023-04-25T03:40:48;21.20;;;10.67;;
23258;SDS011;11798;51.528;7.240;2023-04-25T03:43:13;18.13;;;9.90;;
23258;SDS011;11798;51.528;7.240;2023-04-25T03:45:39;20.80;;;9.87;;
23258;SDS011;11798;51.528;7.240;2023-04-25T03:48:05;16.93;;;9.87;;
23258;SDS011;11798;51.528;7.240;2023-04-25T03:50:30;23.23;;;10.23;;
23258;SDS011;11798;51.528;7.240;2023-04-25T03:52:56;20.37;;;9.37;;
23258;SDS011;11798;51.528;7.240;2023-04-25T03:55:21;21.93;;;11.17;;
23258;SDS011;11798;51.528;7.240;2023-04-25T03:57:47;24.10;;;11.13;;
23258;SDS011;11798;51.528;7.240;2023-04-25T04:00:13;15.60;;;6.90;;
23258;SDS011;11798;51.528;7.240;2023-04-25T04:02:39;15.70;;;5.17;;
23258;SDS011;11798;51.528;7.240;2023-04-25T04:05:04;12.87;;;5.00;;
23258;SDS011;11798;51.528;7.240;2023-04-25T04:07:30;11.87;;;5.20;;
23258;SDS011;11798;51.528;7.240;2023-04-25T04:09:57;15.07;;;3.97;;
23258;SDS011;11798;51.528;7.240;2023-04-25T04:12:23;12.93;;;3.80;;
23258;SDS011;11798;51.528;7.240;2023-04-25T04:14:49;9.90;;;4.37;;
23258;SDS011;11798;51.528;7.240;2023-04-25T04:17:15;7.20;;;4.33;;
23258;SDS011;11798;51.528;7.240;2023-04-25T04:19:41;11.10;;;3.53;;
23258;SDS011;11798;51.528;7.240;2023-04-25T04:22:06;8.97;;;4.03;;
23258;SDS011;11798;51.528;7.240;2023-04-25T04:24:32;8.83;;;4.03;;
23258;SDS011;11798;51.528;7.240;2023-04-25T04:26:58;11.33;;;4.27;;
23258;SDS011;11798;51.528;7.240;2023-04-25T04:29:24;10.53;;;3.83;;
23258;SDS011;11798;51.528;7.240;2023-04-25T04:31:50;10.27;;;3.77;;
23258;SDS011;11798;51.528;7.240;2023-04-25T04:34:17;12.23;;;4.53;;
23258;SDS011;11798;51.528;7.240;2023-04-25T04:36:43;10.07;;;4.53;;
23258;SDS011;11798;51.528;7.240;2023-04-25T04:39:12;15.20;;;4.57;;
23258;SDS011;11798;51.528;7.240;2023-04-25T04:41:38;14.77;;;4.60;;
23258;SDS011;11798;51.528;7.240;2023-04-25T04:44:05;9.63;;;4.43;;
23258;SDS011;11798;51.528;7.240;2023-04-25T04:46:31;11.90;;;4.60;;
23258;SDS011;11798;51.528;7.240;2023-04-25T04:49:03;16.07;;;4.77;;
23258;SDS011;11798;51.528;7.240;2023-04-25T04:51:31;10.57;;;4.63;;
23258;SDS011;11798;51.528;7.240;2023-04-25T04:53:58;13.30;;;4.80;;
23258;SDS011;11798;51.528;7.240;2023-04-25T04:56:27;9.90;;;4.83;;
23258;SDS011;11798;51.528;7.240;2023-04-25T04:58:54;11.87;;;3.90;;
23258;SDS011;11798;51.528;7.240;2023-04-25T05:01:20;16.40;;;4.90;;
23258;SDS011;11798;51.528;7.240;2023-04-25T05:03:45;11.57;;;4.27;;
23258;SDS011;11798;51.528;7.240;2023-04-25T05:06:12;13.97;;;5.50;;
23258;SDS011;11798;51.528;7.240;2023-04-25T05:08:37;15.30;;;5.13;;
23258;SDS011;11798;51.528;7.240;2023-04-25T05:11:03;13.03;;;4.57;;
23258;SDS011;11798;51.528;7.240;2023-04-25T05:13:28;14.17;;;5.13;;
23258;SDS011;11798;51.528;7.240;2023-04-25T05:15:54;8.67;;;5.03;;
23258;SDS011;11798;51.528;7.240;2023-04-25T05:18:20;14.90;;;5.10;;
23258;SDS011;11798;51.528;7.240;2023-04-25T05:20:45;17.97;;;5.43;;
23258;SDS011;11798;51.528;7.240;2023-04-25T05:23:11;13.30;;;5.57;;
23258;SDS011;11798;51.528;7.240;2023-04-25T05:25:36;12.77;;;5.60;;
23258;SDS011;11798;51.528;7.240;2023-04-25T05:28:02;14.67;;;6.07;;
23258;SDS011;11798;51.528;7.240;2023-04-25T05:30:28;17.87;;;7.50;;
23258;SDS011;11798;51.528;7.240;2023-04-25T05:32:53;15.87;;;7.30;;
23258;SDS011;11798;51.528;7.240;2023-04-25T05:35:19;16.40;;;7.80;;
23258;SDS011;11798;51.528;7.240;2023-04-25T05:37:45;14.27;;;8.10;;
23258;SDS011;11798;51.528;7.240;2023-04-25T05:40:10;19.20;;;8.67;;
23258;SDS011;11798;51.528;7.240;2023-04-25T05:42:36;21.17;;;9.27;;
23258;SDS011;11798;51.528;7.240;2023-04-25T05:45:02;14.87;;;8.03;;
23258;SDS011;11798;51.528;7.240;2023-04-25T05:47:28;20.50;;;9.80;;
23258;SDS011;11798;51.528;7.240;2023-04-25T05:49:53;23.67;;;10.80;;
23258;SDS011;11798;51.528;7.240;2023-04-25T05:52:19;25.50;;;11.13;;
23258;SDS011;11798;51.528;7.240;2023-04-25T05:54:44;22.37;;;11.30;;
23258;SDS011;11798;51.528;7.240;2023-04-25T05:57:31;26.73;;;10.67;;
23258;SDS011;11798;51.528;7.240;2023-04-25T05:59:56;20.97;;;10.13;;
23258;SDS011;11798;51.528;7.240;2023-04-25T06:02:21;29.00;;;11.60;;
23258;SDS011;11798;51.528;7.240;2023-04-25T06:04:50;22.33;;;11.60;;
23258;SDS011;11798;51.528;7.240;2023-04-25T06:07:16;25.77;;;11.00;;
23258;SDS011;11798;51.528;7.240;2023-04-25T06:09:43;28.00;;;11.63;;
23258;SDS011;11798;51.528;7.240;2023-04-25T06:12:08;20.43;;;10.20;;
23258;SDS011;11798;51.528;7.240;2023-04-25T06:14:34;29.17;;;11.80;;
23258;SDS011;11798;51.528;7.240;2023-04-25T06:17:00;22.40;;;10.37;;
23258;SDS011;11798;51.528;7.240;2023-04-25T06:19:31;31.90;;;10.90;;
23258;SDS011;11798;51.528;7.240;2023-04-25T06:21:57;23.43;;;10.00;;
23258;SDS011;11798;51.528;7.240;2023-04-25T06:24:23;23.77;;;10.30;;
23258;SDS011;11798;51.528;7.240;2023-04-25T06:26:48;24.17;;;10.87;;
23258;SDS011;11798;51.528;7.240;2023-04-25T06:29:14;20.17;;;10.47;;
23258;SDS011;11798;51.528;7.240;2023-04-25T06:31:40;25.90;;;11.43;;
23258;SDS011;11798;51.528;7.240;2023-04-25T06:34:05;24.20;;;9.20;;
23258;SDS011;11798;51.528;7.240;2023-04-25T06:36:31;17.57;;;5.67;;
23258;SDS011;11798;51.528;7.240;2023-04-25T06:38:57;17.67;;;5.07;;
23258;SDS011;11798;51.528;7.240;2023-04-25T06:41:22;17.23;;;5.03;;
23258;SDS011;11798;51.528;7.240;2023-04-25T06:43:48;15.67;;;4.70;;
23258;SDS011;11798;51.528;7.240;2023-04-25T06:46:13;22.67;;;4.80;;
23258;SDS011;11798;51.528;7.240;2023-04-25T06:48:39;16.93;;;4.67;;
23258;SDS011;11798;51.528;7.240;2023-04-25T06:51:05;16.17;;;4.83;;
23258;SDS011;11798;51.528;7.240;2023-04-25T06:53:30;19.87;;;5.17;;
23258;SDS011;11798;51.528;7.240;2023-04-25T06:55:56;15.07;;;4.27;;
23258;SDS011;11798;51.528;7.240;2023-04-25T06:58:21;21.10;;;4.93;;
23258;SDS011;11798;51.528;7.240;2023-04-25T07:00:47;16.87;;;4.97;;
23258;SDS011;11798;51.528;7.240;2023-04-25T07:03:13;17.37;;;5.63;;
23258;SDS011;11798;51.528;7.240;2023-04-25T07:05:38;15.10;;;5.80;;
23258;SDS011;11798;51.528;7.240;2023-04-25T07:08:04;16.17;;;5.20;;
23258;SDS011;11798;51.528;7.240;2023-04-25T07:10:30;13.53;;;4.67;;
23258;SDS011;11798;51.528;7.240;2023-04-25T07:12:55;14.00;;;4.83;;
23258;SDS011;11798;51.528;7.240;2023-04-25T07:15:21;15.00;;;5.60;;
23258;SDS011;11798;51.528;7.240;2023-04-25T07:17:46;16.27;;;5.90;;
23258;SDS011;11798;51.528;7.240;2023-04-25T07:20:12;12.13;;;5.37;;
23258;SDS011;11798;51.528;7.240;2023-04-25T07:22:38;16.93;;;5.23;;
23258;SDS011;11798;51.528;7.240;2023-04-25T07:25:03;17.10;;;6.00;;
23258;SDS011;11798;51.528;7.240;2023-04-25T07:27:30;15.33;;;4.67;;
23258;SDS011;11798;51.528;7.240;2023-04-25T07:29:56;19.33;;;5.53;;
23258;SDS011;11798;51.528;7.240;2023-04-25T07:32:22;14.17;;;4.70;;
23258;SDS011;11798;51.528;7.240;2023-04-25T07:34:48;15.17;;;4.23;;
23258;SDS011;11798;51.528;7.240;2023-04-25T07:37:14;14.50;;;4.60;;
23258;SDS011;11798;51.528;7.240;2023-04-25T07:39:39;18.80;;;4.70;;
23258;SDS011;11798;51.528;7.240;2023-04-25T07:42:05;16.43;;;4.40;;
23258;SDS011;11798;51.528;7.240;2023-04-25T07:44:33;14.60;;;5.03;;
23258;SDS011;11798;51.528;7.240;2023-04-25T07:47:03;19.03;;;5.17;;
23258;SDS011;11798;51.528;7.240;2023-04-25T07:49:31;10.57;;;3.67;;
23258;SDS011;11798;51.528;7.240;2023-04-25T07:51:58;14.07;;;4.17;;
23258;SDS011;11798;51.528;7.240;2023-04-25T07:54:24;14.17;;;4.07;;
23258;SDS011;11798;51.528;7.240;2023-04-25T07:56:50;11.27;;;3.43;;
23258;SDS011;11798;51.528;7.240;2023-04-25T07:59:15;12.00;;;2.97;;
23258;SDS011;11798;51.528;7.240;2023-04-25T08:01:41;12.93;;;4.27;;
23258;SDS011;11798;51.528;7.240;2023-04-25T08:04:07;15.50;;;4.23;;
23258;SDS011;11798;51.528;7.240;2023-04-25T08:06:32;11.80;;;3.20;;
23258;SDS011;11798;51.528;7.240;2023-04-25T08:08:58;15.07;;;3.37;;
23258;SDS011;11798;51.528;7.240;2023-04-25T08:11:23;12.23;;;4.33;;
23258;SDS011;11798;51.528;7.240;2023-04-25T08:13:50;13.73;;;3.73;;
23258;SDS011;11798;51.528;7.240;2023-04-25T08:16:15;8.53;;;3.30;;
23258;SDS011;11798;51.528;7.240;2023-04-25T08:18:41;10.37;;;2.83;;
23258;SDS011;11798;51.528;7.240;2023-04-25T08:21:07;12.27;;;3.53;;
23258;SDS011;11798;51.528;7.240;2023-04-25T08:23:33;7.70;;;2.90;;
23258;SDS011;11798;51.528;7.240;2023-04-25T08:25:59;10.57;;;2.90;;
23258;SDS011;11798;51.528;7.240;2023-04-25T08:28:25;10.77;;;2.53;;
23258;SDS011;11798;51.528;7.240;2023-04-25T08:30:50;9.83;;;2.77;;
23258;SDS011;11798;51.528;7.240;2023-04-25T08:33:16;8.53;;;2.20;;
23258;SDS011;11798;51.528;7.240;2023-04-25T08:35:42;12.70;;;2.93;;
23258;SDS011;11798;51.528;7.240;2023-04-25T08:38:09;11.67;;;2.47;;
23258;SDS011;11798;51.528;7.240;2023-04-25T08:40:37;11.03;;;2.73;;
23258;SDS011;11798;51.528;7.240;2023-04-25T08:43:05;9.57;;;2.90;;
23258;SDS011;11798;51.528;7.240;2023-04-25T08:45:36;11.40;;;2.83;;
23258;SDS011;11798;51.528;7.240;2023-04-25T08:48:05;12.90;;;3.13;;
23258;SDS011;11798;51.528;7.240;2023-04-25T08:53:27;9.03;;;2.50;;
23258;SDS011;11798;51.528;7.240;2023-04-25T08:55:55;7.77;;;2.67;;
23258;SDS011;11798;51.528;7.240;2023-04-25T08:58:22;16.67;;;2.70;;
23258;SDS011;11798;51.528;7.240;2023-04-25T09:00:49;11.37;;;2.60;;
23258;SDS011;11798;51.528;7.240;2023-04-25T09:03:18;8.83;;;2.60;;
23258;SDS011;11798;51.528;7.240;2023-04-25T09:05:44;7.50;;;2.60;;
23258;SDS011;11798;51.528;7.240;2023-04-25T09:08:10;8.93;;;2.90;;
23258;SDS011;11798;51.528;7.240;2023-04-25T09:10:36;11.03;;;2.90;;
23258;SDS011;11798;51.528;7.240;2023-04-25T09:15:33;11.87;;;2.33;;
23258;SDS011;11798;51.528;7.240;2023-04-25T09:18:36;9.97;;;2.67;;
23258;SDS011;11798;51.528;7.240;2023-04-25T09:23:41;10.80;;;3.97;;
23258;SDS011;11798;51.528;7.240;2023-04-25T09:26:08;10.53;;;2.93;;
23258;SDS011;11798;51.528;7.240;2023-04-25T09:28:34;12.70;;;2.60;;
23258;SDS011;11798;51.528;7.240;2023-04-25T09:31:01;10.17;;;2.60;;
23258;SDS011;11798;51.528;7.240;2023-04-25T09:33:30;11.83;;;2.60;;
23258;SDS011;11798;51.528;7.240;2023-04-25T09:36:03;10.07;;;2.53;;
23258;SDS011;11798;51.528;7.240;2023-04-25T09:38:39;13.87;;;2.40;;
23258;SDS011;11798;51.528;7.240;2023-04-25T09:41:10;5.20;;;2.40;;
23258;SDS011;11798;51.528;7.240;2023-04-25T09:43:36;9.20;;;2.40;;
23258;SDS011;11798;51.528;7.240;2023-04-25T09:46:02;8.13;;;2.83;;
23258;SDS011;11798;51.528;7.240;2023-04-25T09:48:33;7.90;;;2.30;;
23258;SDS011;11798;51.528;7.240;2023-04-25T09:51:09;5.60;;;2.10;;
23258;SDS011;11798;51.528;7.240;2023-04-25T09:53:36;5.37;;;1.77;;
23258;SDS011;11798;51.528;7.240;2023-04-25T09:56:04;6.80;;;2.10;;
23258;SDS011;11798;51.528;7.240;2023-04-25T09:58:34;8.33;;;2.20;;
23258;SDS011;11798;51.528;7.240;2023-04-25T10:01:01;6.13;;;2.40;;
23258;SDS011;11798;51.528;7.240;2023-04-25T10:03:32;5.50;;;1.90;;
23258;SDS011;11798;51.528;7.240;2023-04-25T10:06:08;7.47;;;2.10;;
23258;SDS011;11798;51.528;7.240;2023-04-25T10:08:37;7.27;;;1.80;;
23258;SDS011;11798;51.528;7.240;2023-04-25T10:11:04;7.80;;;2.03;;
23258;SDS011;11798;51.528;7.240;2023-04-25T10:13:31;7.47;;;2.00;;
23258;SDS011;11798;51.528;7.240;2023-04-25T10:15:58;8.50;;;1.97;;
23258;SDS011;11798;51.528;7.240;2023-04-25T10:18:25;4.13;;;1.60;;
23258;SDS011;11798;51.528;7.240;2023-04-25T10:20:53;7.67;;;1.70;;
23258;SDS011;11798;51.528;7.240;2023-04-25T10:23:29;7.27;;;2.07;;
23258;SDS011;11798;51.528;7.240;2023-04-25T10:25:56;10.53;;;1.93;;
23258;SDS011;11798;51.528;7.240;2023-04-25T10:28:23;5.83;;;1.97;;
23258;SDS011;11798;51.528;7.240;2023-04-25T10:36:17;5.33;;;1.77;;
23258;SDS011;11798;51.528;7.240;2023-04-25T10:38:44;6.83;;;1.90;;
23258;SDS011;11798;51.528;7.240;2023-04-25T10:41:11;5.70;;;2.40;;
23258;SDS011;11798;51.528;7.240;2023-04-25T10:46:21;9.00;;;2.20;;
23258;SDS011;11798;51.528;7.240;2023-04-25T10:51:16;6.77;;;2.57;;
23258;SDS011;11798;51.528;7.240;2023-04-25T10:53:48;7.63;;;2.10;;
23258;SDS011;11798;51.528;7.240;2023-04-25T10:58:48;7.60;;;1.93;;
23258;SDS011;11798;51.528;7.240;2023-04-25T11:01:15;8.90;;;2.33;;
23258;SDS011;11798;51.528;7.240;2023-04-25T11:03:45;10.03;;;2.20;;
23258;SDS011;11798;51.528;7.240;2023-04-25T11:08:49;8.70;;;2.10;;
23258;SDS011;11798;51.528;7.240;2023-04-25T11:11:16;8.70;;;2.50;;
23258;SDS011;11798;51.528;7.240;2023-04-25T11:13:43;10.10;;;2.70;;
23258;SDS011;11798;51.528;7.240;2023-04-25T11:16:09;8.23;;;2.57;;
23258;SDS011;11798;51.528;7.240;2023-04-25T11:18:35;6.90;;;2.00;;
23258;SDS011;11798;51.528;7.240;2023-04-25T11:21:02;4.67;;;1.93;;
23258;SDS011;11798;51.528;7.240;2023-04-25T11:23:28;10.17;;;2.20;;
23258;SDS011;11798;51.528;7.240;2023-04-25T11:25:55;4.53;;;2.00;;
23258;SDS011;11798;51.528;7.240;2023-04-25T11:28:21;9.87;;;2.40;;
23258;SDS011;11798;51.528;7.240;2023-04-25T11:30:51;7.30;;;2.47;;
23258;SDS011;11798;51.528;7.240;2023-04-25T11:33:17;6.07;;;2.07;;
23258;SDS011;11798;51.528;7.240;2023-04-25T11:35:43;4.93;;;1.87;;
23258;SDS011;11798;51.528;7.240;2023-04-25T11:38:08;8.63;;;2.30;;
23258;SDS011;11798;51.528;7.240;2023-04-25T11:40:35;6.67;;;2.10;;
23258;SDS011;11798;51.528;7.240;2023-04-25T11:43:01;4.23;;;1.87;;
23258;SDS011;11798;51.528;7.240;2023-04-25T11:45:27;8.27;;;2.73;;
23258;SDS011;11798;51.528;7.240;2023-04-25T11:47:53;8.03;;;2.10;;
23258;SDS011;11798;51.528;7.240;2023-04-25T11:50:19;8.63;;;2.80;;
23258;SDS011;11798;51.528;7.240;2023-04-25T11:52:45;5.70;;;2.10;;
23258;SDS011;11798;51.528;7.240;2023-04-25T11:57:45;5.20;;;1.20;;
23258;SDS011;11798;51.528;7.240;2023-04-25T12:00:15;4.90;;;1.20;;
23258;SDS011;11798;51.528;7.240;2023-04-25T12:02:45;2.27;;;1.00;;
23258;SDS011;11798;51.528;7.240;2023-04-25T12:05:13;1.77;;;1.07;;
23258;SDS011;11798;51.528;7.240;2023-04-25T12:07:41;2.90;;;1.10;;
23258;SDS011;11798;51.528;7.240;2023-04-25T12:10:08;4.73;;;1.30;;
23258;SDS011;11798;51.528;7.240;2023-04-25T12:12:36;3.60;;;1.37;;
23258;SDS011;11798;51.528;7.240;2023-04-25T12:15:12;4.37;;;1.63;;
23258;SDS011;11798;51.528;7.240;2023-04-25T12:17:40;5.03;;;1.43;;
23258;SDS011;11798;51.528;7.240;2023-04-25T12:20:11;3.07;;;1.20;;
23258;SDS011;11798;51.528;7.240;2023-04-25T12:22:40;1.97;;;1.17;;
23258;SDS011;11798;51.528;7.240;2023-04-25T12:25:09;3.90;;;1.30;;
23258;SDS011;11798;51.528;7.240;2023-04-25T12:27:55;4.13;;;1.60;;
23258;SDS011;11798;51.528;7.240;2023-04-25T12:30:51;7.10;;;1.53;;
23258;SDS011;11798;51.528;7.240;2023-04-25T12:33:17;2.83;;;1.33;;
23258;SDS011;11798;51.528;7.240;2023-04-25T12:35:42;6.13;;;1.43;;
23258;SDS011;11798;51.528;7.240;2023-04-25T12:38:08;4.40;;;1.60;;
23258;SDS011;11798;51.528;7.240;2023-04-25T12:40:33;5.53;;;1.60;;
23258;SDS011;11798;51.528;7.240;2023-04-25T12:42:59;5.10;;;1.70;;
23258;SDS011;11798;51.528;7.240;2023-04-25T12:45:25;5.77;;;1.30;;
23258;SDS011;11798;51.528;7.240;2023-04-25T12:47:50;4.50;;;1.57;;
23258;SDS011;11798;51.528;7.240;2023-04-25T12:50:16;2.20;;;1.00;;
23258;SDS011;11798;51.528;7.240;2023-04-25T12:52:42;5.20;;;1.53;;
23258;SDS011;11798;51.528;7.240;2023-04-25T12:55:07;5.43;;;1.37;;
23258;SDS011;11798;51.528;7.240;2023-04-25T12:57:33;4.97;;;1.40;;
23258;SDS011;11798;51.528;7.240;2023-04-25T12:59:58;4.40;;;1.27;;
23258;SDS011;11798;51.528;7.240;2023-04-25T13:02:24;5.27;;;1.63;;
23258;SDS011;11798;51.528;7.240;2023-04-25T13:04:50;3.47;;;1.40;;
23258;SDS011;11798;51.528;7.240;2023-04-25T13:07:16;6.53;;;1.40;;
23258;SDS011;11798;51.528;7.240;2023-04-25T13:09:42;5.90;;;1.77;;
23258;SDS011;11798;51.528;7.240;2023-04-25T13:12:07;6.03;;;1.47;;
23258;SDS011;11798;51.528;7.240;2023-04-25T13:14:33;3.40;;;1.60;;
23258;SDS011;11798;51.528;7.240;2023-04-25T13:16:58;4.77;;;1.47;;
23258;SDS011;11798;51.528;7.240;2023-04-25T13:19:24;4.00;;;1.50;;
23258;SDS011;11798;51.528;7.240;2023-04-25T13:21:50;4.50;;;1.80;;
23258;SDS011;11798;51.528;7.240;2023-04-25T13:24:16;5.53;;;1.60;;
23258;SDS011;11798;51.528;7.240;2023-04-25T13:26:42;8.33;;;2.23;;
23258;SDS011;11798;51.528;7.240;2023-04-25T13:29:08;19.27;;;3.80;;
23258;SDS011;11798;51.528;7.240;2023-04-25T13:31:33;8.03;;;1.53;;
23258;SDS011;11798;51.528;7.240;2023-04-25T13:33:59;5.60;;;1.67;;
23258;SDS011;11798;51.528;7.240;2023-04-25T13:36:25;6.40;;;1.90;;
23258;SDS011;11798;51.528;7.240;2023-04-25T13:38:50;62.47;;;10.07;;
23258;SDS011;11798;51.528;7.240;2023-04-25T13:41:16;32.77;;;5.83;;
23258;SDS011;11798;51.528;7.240;2023-04-25T13:43:43;6.43;;;1.70;;
23258;SDS011;11798;51.528;7.240;2023-04-25T13:46:10;40.80;;;5.97;;
23258;SDS011;11798;51.528;7.240;2023-04-25T13:48:36;9.63;;;2.07;;
23258;SDS011;11798;51.528;7.240;2023-04-25T13:51:02;5.90;;;2.17;;
23258;SDS011;11798;51.528;7.240;2023-04-25T13:53:28;5.00;;;1.70;;
23258;SDS011;11798;51.528;7.240;2023-04-25T13:55:53;12.43;;;2.67;;
23258;SDS011;11798;51.528;7.240;2023-04-25T13:58:19;24.43;;;3.60;;
23258;SDS011;11798;51.528;7.240;2023-04-25T14:00:45;11.67;;;2.23;;
23258;SDS011;11798;51.528;7.240;2023-04-25T14:03:11;7.10;;;1.80;;
23258;SDS011;11798;51.528;7.240;2023-04-25T14:05:37;21.23;;;3.93;;
23258;SDS011;11798;51.528;7.240;2023-04-25T14:08:03;10.13;;;2.20;;
23258;SDS011;11798;51.528;7.240;2023-04-25T14:10:30;17.50;;;3.53;;
23258;SDS011;11798;51.528;7.240;2023-04-25T14:12:56;5.27;;;1.77;;
23258;SDS011;11798;51.528;7.240;2023-04-25T14:15:21;5.10;;;1.60;;
23258;SDS011;11798;51.528;7.240;2023-04-25T14:17:47;4.93;;;1.53;;
23258;SDS011;11798;51.528;7.240;2023-04-25T14:20:13;4.60;;;1.70;;
23258;SDS011;11798;51.528;7.240;2023-04-25T14:22:38;3.57;;;1.37;;
23258;SDS011;11798;51.528;7.240;2023-04-25T14:25:08;5.43;;;1.60;;
23258;SDS011;11798;51.528;7.240;2023-04-25T14:27:34;4.40;;;1.77;;
23258;SDS011;11798;51.528;7.240;2023-04-25T14:29:59;4.67;;;1.40;;
23258;SDS011;11798;51.528;7.240;2023-04-25T14:32:25;6.20;;;1.50;;
23258;SDS011;11798;51.528;7.240;2023-04-25T14:34:51;6.13;;;1.70;;
23258;SDS011;11798;51.528;7.240;2023-04-25T14:37:16;3.53;;;1.53;;
23258;SDS011;11798;51.528;7.240;2023-04-25T14:39:42;3.03;;;1.30;;
23258;SDS011;11798;51.528;7.240;2023-04-25T14:42:07;2.47;;;1.30;;
23258;SDS011;11798;51.528;7.240;2023-04-25T14:44:33;2.60;;;1.27;;
23258;SDS011;11798;51.528;7.240;2023-04-25T14:46:59;4.93;;;1.40;;
23258;SDS011;11798;51.528;7.240;2023-04-25T14:49:24;4.30;;;1.37;;
23258;SDS011;11798;51.528;7.240;2023-04-25T14:51:50;1.23;;;0.90;;
23258;SDS011;11798;51.528;7.240;2023-04-25T14:54:16;2.77;;;1.07;;
23258;SDS011;11798;51.528;7.240;2023-04-25T14:56:42;2.73;;;1.20;;
23258;SDS011;11798;51.528;7.240;2023-04-25T14:59:07;4.63;;;1.20;;
23258;SDS011;11798;51.528;7.240;2023-04-25T15:01:33;1.97;;;1.13;;